Time;durP1;ratioP1;P1;durP2;ratioP2;P2;SDS_P1;SDS_P2;PMS_P1;PMS_P2;Temp;Humidity;BMP_temperature;BMP_pressure;BME280_temperature;BME280_humidity;BME280_pressure;Samples;Min_cycle;Max_cycle;Signal;HPM_P1;HPM_P2
2022/04/30 00:00:29;;;;;;;35.55;15.90;;;;;;;-144.47;51.12;53277.19;5053961;28;20402;-67
2022/04/30 00:02:55;;;;;;;47.55;17.55;;;;;;;-144.47;51.23;53277.19;5056029;28;20119;-68
2022/04/30 00:05:20;;;;;;;32.30;16.95;;;;;;;-144.47;51.27;53322.88;5059414;28;20043;-68
2022/04/30 00:07:45;;;;;;;28.88;15.32;;;;;;;-144.47;51.17;53303.00;5036063;28;20025;-69
2022/04/30 00:10:11;;;;;;;37.97;16.20;;;;;;;-144.47;51.23;53259.31;5065021;28;20031;-68
2022/04/30 00:12:36;;;;;;;41.28;17.10;;;;;;;-144.47;51.10;53249.38;5052553;28;20017;-67
2022/04/30 00:15:02;;;;;;;37.40;16.73;;;;;;;-144.47;51.10;53301.03;5046955;28;20028;-69
2022/04/30 00:17:27;;;;;;;33.03;15.65;;;;;;;-144.47;51.32;53275.19;5052394;28;20126;-67
2022/04/30 00:19:53;;;;;;;30.55;17.05;;;;;;;-144.47;51.40;53293.06;5064336;28;20087;-69
2022/04/30 00:22:18;;;;;;;29.00;15.50;;;;;;;-144.47;51.12;53277.19;5052334;28;20048;-67
2022/04/30 00:24:45;;;;;;;31.45;16.42;;;;;;;-144.47;51.45;53281.16;5052433;28;20031;-65
2022/04/30 00:27:11;;;;;;;30.40;16.45;;;;;;;-144.47;51.62;53285.13;5056941;28;20431;-67
2022/04/30 00:29:36;;;;;;;28.67;15.90;;;;;;;-144.47;51.51;53305.00;5062449;28;20628;-66
2022/04/30 00:32:03;;;;;;;32.25;16.98;;;;;;;-144.47;51.62;53324.84;5033127;28;20032;-68
2022/04/30 00:34:29;;;;;;;35.08;16.08;;;;;;;-144.47;51.55;53289.09;5071667;28;20048;-68
2022/04/30 00:36:54;;;;;;;34.20;14.93;;;;;;;-144.47;50.51;53299.03;5063718;28;20029;-68
2022/04/30 00:39:19;;;;;;;29.08;14.65;;;;;;;-144.47;49.00;53253.34;5051378;28;20040;-68
2022/04/30 00:41:46;;;;;;;49.28;18.63;;;;;;;-144.47;49.22;53320.88;5069557;28;20040;-67
2022/04/30 00:44:16;;;;;;;31.75;15.07;;;;;;;-144.47;49.71;53301.03;5071065;28;20024;-68
2022/04/30 00:46:43;;;;;;;27.67;16.13;;;;;;;-144.47;49.56;53287.13;5067244;28;20037;-68
2022/04/30 00:49:08;;;;;;;28.77;16.88;;;;;;;-144.47;49.84;53303.00;5042374;28;20113;-66
2022/04/30 00:51:37;;;;;;;32.72;14.90;;;;;;;-144.47;50.30;53312.94;5066739;28;20112;-67
2022/04/30 00:54:04;;;;;;;33.08;15.40;;;;;;;-144.47;51.10;53285.13;5060063;28;20033;-67
2022/04/30 00:56:34;;;;;;;28.92;14.90;;;;;;;-144.47;51.12;53314.91;5068100;28;20024;-68
2022/04/30 00:59:05;;;;;;;41.72;19.88;;;;;;;-144.47;51.25;53297.03;5067180;28;20040;-67
2022/04/30 01:01:35;;;;;;;39.10;20.00;;;;;;;-144.47;50.90;53285.13;5070335;28;20025;-67
2022/04/30 01:04:01;;;;;;;29.20;16.17;;;;;;;-144.47;51.61;53285.13;5068380;28;20078;-68
2022/04/30 01:06:50;;;;;;;31.25;17.92;;;;;;;-144.47;51.74;53281.16;5065165;28;20041;-68
2022/04/30 01:09:29;;;;;;;31.08;17.10;;;;;;;-144.47;51.14;53271.22;5046358;28;20433;-68
2022/04/30 01:12:14;;;;;;;35.40;15.65;;;;;;;-144.47;50.56;53310.94;5069813;28;20121;-69
2022/04/30 01:14:42;;;;;;;36.35;16.40;;;;;;;-144.47;50.56;53312.94;5064585;28;20037;-67
2022/04/30 01:17:10;;;;;;;26.42;15.18;;;;;;;-144.47;50.19;53261.28;5062781;28;20043;-69
2022/04/30 01:19:38;;;;;;;30.80;15.38;;;;;;;-144.47;49.98;53305.00;5067331;28;20036;-67
2022/04/30 01:22:26;;;;;;;32.28;14.50;;;;;;;-144.47;49.60;53293.06;5069651;28;20059;-67
2022/04/30 01:24:59;;;;;;;27.67;13.75;;;;;;;-144.47;49.46;53287.13;5066508;28;20086;-66
2022/04/30 01:27:26;;;;;;;22.08;12.55;;;;;;;-144.47;49.17;53305.00;5061725;28;20043;-67
2022/04/30 01:29:54;;;;;;;19.70;11.60;;;;;;;-144.47;48.88;53271.22;5065670;28;20036;-68
2022/04/30 01:37:58;;;;;;;24.27;11.25;;;;;;;-144.47;49.08;53265.25;5061491;28;20051;-68
2022/04/30 01:40:23;;;;;;;23.80;10.95;;;;;;;-144.47;49.60;53263.28;5051983;28;20017;-67
2022/04/30 01:42:48;;;;;;;21.02;10.70;;;;;;;-144.47;50.02;53305.00;5068737;28;20028;-67
2022/04/30 01:45:16;;;;;;;22.35;11.02;;;;;;;-144.47;50.18;53263.28;5046738;28;20040;-68
2022/04/30 01:47:44;;;;;;;19.73;10.30;;;;;;;-144.47;50.23;53277.19;5067256;28;20202;-67
2022/04/30 01:50:10;;;;;;;18.75;10.63;;;;;;;-144.47;50.40;53271.22;5051043;28;20120;-68
2022/04/30 01:52:36;;;;;;;24.92;10.57;;;;;;;-144.47;50.31;53285.13;5069579;28;20024;-69
2022/04/30 01:55:03;;;;;;;23.30;9.77;;;;;;;-144.47;50.60;53314.91;5066946;28;20402;-67
2022/04/30 01:57:28;;;;;;;20.60;10.43;;;;;;;-144.47;51.01;53308.97;5069086;28;20550;-68
2022/04/30 01:59:55;;;;;;;16.40;9.40;;;;;;;-144.47;51.74;53289.09;5063895;28;20025;-68
2022/04/30 02:02:24;;;;;;;20.13;8.80;;;;;;;-144.47;52.24;53318.91;5069261;28;20044;-68
2022/04/30 02:04:55;;;;;;;17.70;9.55;;;;;;;-144.47;52.60;53297.03;5051029;28;20032;-67
2022/04/30 02:07:22;;;;;;;20.58;10.40;;;;;;;-144.47;53.38;53287.13;5061001;28;20020;-67
2022/04/30 02:09:51;;;;;;;23.17;9.40;;;;;;;-144.47;53.48;53285.13;5056130;28;20028;-68
2022/04/30 02:12:16;;;;;;;;;;;;;;;-144.47;53.93;53310.94;5060237;28;20111;-65
2022/04/30 02:14:48;;;;;;;21.15;9.43;;;;;;;-144.47;54.21;53312.94;5060025;28;20381;-68
2022/04/30 02:17:15;;;;;;;17.95;8.35;;;;;;;-144.47;54.53;53308.97;5065306;28;20101;-67
2022/04/30 02:22:28;;;;;;;20.05;7.35;;;;;;;-144.47;55.33;53291.09;5054628;28;20040;-68
2022/04/30 02:24:54;;;;;;;16.10;7.88;;;;;;;-144.47;55.72;53326.84;5060767;28;20028;-66
2022/04/30 02:27:21;;;;;;;20.70;6.90;;;;;;;-144.47;55.89;53344.72;5069294;28;20111;-67
2022/04/30 02:29:47;;;;;;;14.32;7.50;;;;;;;-144.47;56.21;53303.00;5067868;28;20059;-67
2022/04/30 02:32:13;;;;;;;18.83;7.07;;;;;;;-144.47;56.50;53297.03;5063083;28;20124;-68
2022/04/30 02:34:38;;;;;;;13.80;7.75;;;;;;;-144.47;56.64;53297.03;5064185;28;20041;-68
2022/04/30 02:37:04;;;;;;;22.10;7.78;;;;;;;-144.47;56.97;53303.00;5055413;28;20028;-67
2022/04/30 02:39:31;;;;;;;12.93;6.05;;;;;;;-144.47;57.04;53326.84;5067543;28;20075;-67
2022/04/30 02:41:56;;;;;;;16.08;6.93;;;;;;;-144.47;57.05;53334.78;5067514;28;20029;-67
2022/04/30 02:44:25;;;;;;;15.82;6.32;;;;;;;-144.47;57.25;53301.03;5064426;28;20101;-67
2022/04/30 02:46:51;;;;;;;;;;;;;;;-144.47;57.56;53330.81;5063336;28;20253;-67
2022/04/30 02:49:16;;;;;;;16.50;6.45;;;;;;;-144.47;57.69;53320.88;5058486;28;19939;-68
2022/04/30 02:51:41;;;;;;;19.35;6.53;;;;;;;-144.47;58.08;53306.97;5055877;28;20052;-68
2022/04/30 02:54:07;;;;;;;18.67;6.68;;;;;;;-144.47;57.79;53310.94;5061708;28;20087;-67
2022/04/30 02:56:32;;;;;;;18.23;6.82;;;;;;;-144.47;58.11;53348.69;5059895;28;20418;-67
2022/04/30 03:01:41;;;;;;;22.00;6.43;;;;;;;-144.47;58.50;53332.81;5056979;28;20094;-67
2022/04/30 03:04:07;;;;;;;15.52;6.10;;;;;;;-144.47;59.18;53324.84;5042695;28;20025;-65
2022/04/30 03:06:35;;;;;;;16.55;7.03;;;;;;;-144.47;59.35;53362.59;5065265;28;20024;-66
2022/04/30 03:09:01;;;;;;;18.85;6.82;;;;;;;-144.47;59.52;53332.81;5068904;28;20148;-67
2022/04/30 03:11:26;;;;;;;22.80;6.82;;;;;;;-144.47;59.83;53308.97;5061797;28;20068;-66
2022/04/30 03:13:51;;;;;;;15.38;6.10;;;;;;;-144.47;60.07;53320.88;5063825;28;20051;-66
2022/04/30 03:21:44;;;;;;;20.65;6.82;;;;;;;-144.47;61.10;53350.69;5067841;28;20447;-68
2022/04/30 03:24:11;;;;;;;13.55;6.45;;;;;;;-144.47;61.14;53318.91;5067499;28;20115;-68
2022/04/30 03:26:37;;;;;;;17.75;6.93;;;;;;;-144.47;61.11;53305.00;5067934;28;20055;-69
2022/04/30 03:29:03;;;;;;;23.38;7.97;;;;;;;-144.47;61.61;53316.91;5063177;28;20057;-67
2022/04/30 03:31:30;;;;;;;20.88;7.32;;;;;;;-144.47;61.31;53301.03;5066079;28;20047;-67
2022/04/30 03:33:55;;;;;;;17.30;6.15;;;;;;;-144.47;61.92;53328.81;5068570;28;20070;-67
2022/04/30 03:36:21;;;;;;;12.43;6.75;;;;;;;-144.47;61.69;53352.66;5058123;28;20028;-68
2022/04/30 03:38:47;;;;;;;14.45;7.43;;;;;;;-144.47;62.11;53354.66;5065205;28;20116;-68
2022/04/30 03:41:13;;;;;;;15.30;6.85;;;;;;;-144.47;61.99;53305.00;5064446;28;20464;-67
2022/04/30 03:43:38;;;;;;;19.45;6.75;;;;;;;-144.47;62.28;53336.78;5055048;28;20094;-68
2022/04/30 03:46:05;;;;;;;24.35;7.05;;;;;;;-144.47;62.21;53334.78;5069640;28;20024;-67
2022/04/30 03:48:30;;;;;;;17.20;6.70;;;;;;;-144.47;62.18;53372.53;5070160;28;20036;-67
2022/04/30 03:50:57;;;;;;;23.13;7.70;;;;;;;-144.47;61.84;53332.81;5066800;28;20033;-66
2022/04/30 03:53:22;;;;;;;15.70;7.22;;;;;;;-144.47;62.36;53352.66;5072502;28;20032;-67
2022/04/30 03:55:48;;;;;;;23.55;7.43;;;;;;;-144.47;62.18;53299.03;5071809;28;20058;-66
2022/04/30 03:58:13;;;;;;;18.55;7.05;;;;;;;-144.47;62.13;53318.91;5071628;28;20111;-66
2022/04/30 04:00:38;;;;;;;19.88;7.47;;;;;;;-144.47;61.85;53326.84;5072161;28;20028;-67
2022/04/30 04:03:04;;;;;;;20.85;8.10;;;;;;;-144.47;61.92;53364.59;5071891;28;20028;-67
2022/04/30 04:05:29;;;;;;;18.10;8.13;;;;;;;-144.47;62.13;53352.66;5061902;28;20571;-69
2022/04/30 04:07:57;;;;;;;19.58;6.78;;;;;;;-144.47;62.30;53364.59;5059771;28;20033;-67
2022/04/30 04:10:23;;;;;;;21.15;8.13;;;;;;;-144.47;62.35;53332.81;5067681;28;20039;-68
2022/04/30 04:12:48;;;;;;;15.63;7.85;;;;;;;-144.47;62.30;53346.72;5058815;28;20056;-67
2022/04/30 04:17:57;;;;;;;20.92;7.38;;;;;;;-144.47;62.63;53330.81;5064883;28;20034;-67
2022/04/30 04:20:25;;;;;;;13.85;7.30;;;;;;;-144.47;62.23;53314.91;5064075;28;20421;-66
2022/04/30 04:22:51;;;;;;;16.48;7.65;;;;;;;-144.47;62.34;53376.50;5060131;28;21241;-66
2022/04/30 04:28:00;;;;;;;16.33;7.50;;;;;;;-144.47;62.02;53320.88;5071079;28;20023;-67
2022/04/30 04:30:29;;;;;;;17.15;8.70;;;;;;;-144.47;61.91;53358.63;5059501;28;20032;-67
2022/04/30 04:32:56;;;;;;;17.25;7.82;;;;;;;-144.47;62.05;53352.66;5058237;28;20035;-66
2022/04/30 04:35:21;;;;;;;19.30;8.80;;;;;;;-144.47;61.86;53342.72;5065380;28;20457;-68
2022/04/30 04:37:47;;;;;;;17.80;7.45;;;;;;;-144.47;62.13;53352.66;5033700;28;20025;-67
2022/04/30 04:40:14;;;;;;;22.17;8.93;;;;;;;-144.47;61.77;53316.91;5061909;28;20067;-68
2022/04/30 04:42:40;;;;;;;30.80;9.55;;;;;;;-144.47;62.10;53336.78;5033789;28;20029;-68
2022/04/30 04:45:07;;;;;;;22.20;8.95;;;;;;;-144.47;61.84;53344.72;5064909;28;20053;-68
2022/04/30 04:47:36;;;;;;;22.77;9.93;;;;;;;-144.47;62.15;53350.69;5057162;28;20313;-67
2022/04/30 04:50:07;;;;;;;20.58;9.73;;;;;;;-144.47;62.36;53342.72;5067592;28;20049;-67
2022/04/30 04:52:32;;;;;;;17.63;8.73;;;;;;;-144.47;62.18;53358.63;5061944;28;20033;-69
2022/04/30 04:54:58;;;;;;;20.73;9.65;;;;;;;-144.47;61.95;53344.72;5045096;28;20016;-67
2022/04/30 04:57:23;;;;;;;21.50;9.70;;;;;;;-144.47;61.95;53342.72;5050855;28;20057;-68
2022/04/30 04:59:49;;;;;;;22.88;9.60;;;;;;;-144.47;61.63;53324.84;5056463;28;20045;-68
2022/04/30 05:02:16;;;;;;;21.13;8.98;;;;;;;-144.47;62.12;53297.03;5066955;28;20040;-67
2022/04/30 05:04:41;;;;;;;21.92;9.65;;;;;;;-144.47;62.05;53330.81;5065408;28;20032;-65
2022/04/30 05:07:06;;;;;;;17.38;9.63;;;;;;;-144.47;61.91;53352.66;5045240;28;20480;-68
2022/04/30 05:09:32;;;;;;;19.40;9.02;;;;;;;-144.47;61.86;53360.63;5060899;28;20031;-68
2022/04/30 05:12:01;;;;;;;19.45;9.55;;;;;;;-144.47;61.75;53328.81;5062945;28;20490;-68
2022/04/30 05:14:33;;;;;;;18.45;8.98;;;;;;;-144.47;61.57;53340.75;5057577;28;20032;-67
2022/04/30 05:17:04;;;;;;;19.35;9.48;;;;;;;-144.47;61.64;53303.00;5059328;28;20041;-67
2022/04/30 05:19:30;;;;;;;13.73;9.07;;;;;;;-144.47;61.43;53360.63;5040409;28;20079;-68
2022/04/30 05:21:55;;;;;;;19.70;9.57;;;;;;;-144.47;61.51;53303.00;5065585;28;20492;-67
2022/04/30 05:24:20;;;;;;;22.15;8.57;;;;;;;-144.47;61.32;53352.66;5069212;28;20523;-69
2022/04/30 05:26:49;;;;;;;18.77;9.60;;;;;;;-144.47;61.19;53334.78;5060117;28;20063;-68
2022/04/30 05:29:16;;;;;;;23.27;9.05;;;;;;;-144.47;61.09;53348.69;5060733;28;20044;-68
2022/04/30 05:31:42;;;;;;;20.30;8.95;;;;;;;-144.47;60.91;53382.47;5054972;28;20065;-69
2022/04/30 05:34:07;;;;;;;20.33;8.05;;;;;;;-144.47;60.82;53348.69;5060441;28;20048;-68
2022/04/30 05:36:33;;;;;;;18.45;8.18;;;;;;;-144.47;60.72;53342.72;5064579;28;20028;-69
2022/04/30 05:38:59;;;;;;;21.08;8.35;;;;;;;-144.47;60.41;53308.97;5059010;28;20522;-71
2022/04/30 05:41:24;;;;;;;20.52;7.88;;;;;;;-144.47;60.10;53356.63;5049507;28;20120;-69
2022/04/30 05:43:50;;;;;;;16.38;8.68;;;;;;;-144.47;60.27;53320.88;5060447;28;20158;-70
2022/04/30 05:46:15;;;;;;;20.73;7.95;;;;;;;-144.47;60.06;53376.50;5068731;28;20036;-69
2022/04/30 05:48:41;;;;;;;17.98;8.18;;;;;;;-144.47;59.76;53334.78;5090213;22;20102;-69
2022/04/30 05:51:06;;;;;;;22.10;8.75;;;;;;;-144.47;60.04;53320.88;5068938;28;20036;-70
2022/04/30 05:53:31;;;;;;;16.42;7.65;;;;;;;-144.47;59.47;53340.75;5069525;28;20120;-69
2022/04/30 05:55:57;;;;;;;16.63;7.93;;;;;;;-144.47;59.40;53330.81;5069634;28;20036;-71
2022/04/30 05:58:22;;;;;;;22.65;8.20;;;;;;;-144.47;59.17;53334.78;5077475;28;20538;-71
2022/04/30 06:00:48;;;;;;;16.27;8.27;;;;;;;-144.47;58.51;53356.63;5070276;28;20027;-72
2022/04/30 06:03:13;;;;;;;22.20;8.25;;;;;;;-144.47;58.21;53328.81;5080173;28;20032;-68
2022/04/30 06:05:38;;;;;;;14.77;7.70;;;;;;;-144.47;58.48;53318.91;5081463;28;20031;-71
2022/04/30 06:08:05;;;;;;;16.52;7.55;;;;;;;-144.47;58.50;53306.97;5078116;28;20039;-69
2022/04/30 06:10:30;;;;;;;14.20;7.38;;;;;;;-144.47;58.01;53314.91;5088683;28;20055;-70
2022/04/30 06:12:56;;;;;;;13.40;6.80;;;;;;;-144.47;57.75;53326.84;5086795;28;20043;-71
2022/04/30 06:15:22;;;;;;;23.90;8.35;;;;;;;-144.47;57.80;53348.69;5085661;28;20111;-69
2022/04/30 06:17:47;;;;;;;15.88;7.60;;;;;;;-144.47;57.82;53342.72;5066911;28;20040;-71
2022/04/30 06:20:12;;;;;;;20.88;8.35;;;;;;;-144.47;57.25;53342.72;5089892;28;20035;-70
2022/04/30 06:22:38;;;;;;;17.10;7.47;;;;;;;-144.47;56.79;53352.66;5087814;28;20040;-71
2022/04/30 06:25:04;;;;;;;13.93;7.13;;;;;;;-144.47;57.02;53352.66;5086750;28;20371;-72
2022/04/30 06:27:29;;;;;;;16.08;7.50;;;;;;;-144.47;56.50;53322.88;5088850;28;20039;-69
2022/04/30 06:29:55;;;;;;;17.13;6.53;;;;;;;-144.47;56.34;53299.03;5085167;28;20047;-68
2022/04/30 06:32:20;;;;;;;15.82;7.07;;;;;;;-144.47;56.41;53308.97;5088489;28;20112;-70
2022/04/30 06:34:45;;;;;;;16.15;7.68;;;;;;;-144.47;56.30;53303.00;5084242;28;20382;-71
2022/04/30 06:37:11;;;;;;;19.10;6.57;;;;;;;-144.47;56.29;53312.94;5086182;28;20500;-70
2022/04/30 06:39:36;;;;;;;18.80;7.13;;;;;;;-144.47;56.79;53334.78;5067653;28;20066;-71
2022/04/30 06:42:01;;;;;;;19.23;6.85;;;;;;;-144.47;56.69;53316.91;5063652;28;20490;-70
2022/04/30 06:44:27;;;;;;;35.83;8.07;;;;;;;-144.47;57.04;53293.06;5085382;28;20054;-72
2022/04/30 06:46:52;;;;;;;11.98;6.55;;;;;;;-144.47;56.54;53334.78;5084436;28;20040;-73
2022/04/30 06:49:17;;;;;;;15.75;6.97;;;;;;;-144.47;56.27;53275.19;5062392;28;20117;-70
2022/04/30 06:51:43;;;;;;;18.85;6.93;;;;;;;-144.47;56.22;53318.91;5086600;28;20027;-71
2022/04/30 06:59:41;;;;;;;13.55;6.45;;;;;;;-144.47;55.45;53342.72;5085440;28;20153;-69
2022/04/30 07:02:27;;;;;;;16.75;6.18;;;;;;;-144.47;55.53;53320.88;5085862;28;20457;-71
2022/04/30 07:04:52;;;;;;;20.33;7.45;;;;;;;-144.47;55.78;53295.06;5086976;28;20028;-70
2022/04/30 07:07:19;;;;;;;13.38;6.45;;;;;;;-144.47;55.58;53301.03;5088768;28;20047;-71
2022/04/30 07:09:44;;;;;;;13.27;6.65;;;;;;;-144.47;55.20;53320.88;5071553;28;20069;-72
2022/04/30 07:12:12;;;;;;;16.58;6.55;;;;;;;-144.47;54.85;53328.81;5088072;28;20044;-69
2022/04/30 07:14:40;;;;;;;15.60;7.10;;;;;;;-144.47;54.94;53249.38;5089230;28;20094;-70
2022/04/30 07:17:06;;;;;;;14.77;6.85;;;;;;;-144.47;54.85;53295.06;5087107;28;21139;-70
2022/04/30 07:19:32;;;;;;;18.90;6.72;;;;;;;-144.47;54.92;53271.22;5070296;28;20059;-70
2022/04/30 07:21:57;;;;;;;13.43;5.93;;;;;;;-144.47;54.68;53275.19;5078135;28;20020;-70
2022/04/30 07:24:23;;;;;;;12.32;6.22;;;;;;;-144.47;54.89;53291.09;5089136;28;20377;-71
2022/04/30 07:26:48;;;;;;;11.88;6.35;;;;;;;-144.47;54.82;53293.06;5088570;28;20131;-68
2022/04/30 07:29:14;;;;;;;17.85;6.45;;;;;;;-144.47;54.60;53334.78;5089001;28;20253;-71
2022/04/30 07:31:39;;;;;;;19.13;6.45;;;;;;;-144.47;54.25;53281.16;5084533;28;20485;-70
2022/04/30 07:34:04;;;;;;;15.88;6.30;;;;;;;-144.47;54.37;53291.09;5079775;28;20489;-71
2022/04/30 07:36:31;;;;;;;16.98;6.88;;;;;;;-144.47;54.33;53265.25;5083728;28;20423;-73
2022/04/30 07:38:57;;;;;;;16.75;6.85;;;;;;;-144.47;54.10;53281.16;5085946;28;20036;-68
2022/04/30 07:41:23;;;;;;;12.40;6.43;;;;;;;-144.47;54.39;53318.91;5086297;28;20043;-70
2022/04/30 07:43:48;;;;;;;12.43;6.47;;;;;;;-144.47;54.06;53293.06;5078573;28;20036;-67
2022/04/30 07:46:13;;;;;;;13.13;6.28;;;;;;;-144.47;53.48;53297.03;5082519;28;20028;-71
2022/04/30 07:48:39;;;;;;;14.27;6.55;;;;;;;-144.47;53.25;53342.72;5081833;28;20021;-74
2022/04/30 07:51:13;;;;;;;15.93;6.05;;;;;;;-144.47;53.27;53332.81;5088533;28;20111;-73
2022/04/30 07:53:38;;;;;;;16.70;6.20;;;;;;;-144.47;53.11;53297.03;5082485;28;20105;-72
2022/04/30 07:56:04;;;;;;;11.38;5.80;;;;;;;-144.47;52.84;53305.00;5068006;28;20028;-71
2022/04/30 07:58:29;;;;;;;11.65;6.00;;;;;;;-144.47;52.60;53265.25;5069742;28;20032;-71
2022/04/30 08:00:55;;;;;;;12.25;5.97;;;;;;;-144.47;53.09;53277.19;5088034;28;20036;-72
2022/04/30 08:03:20;;;;;;;12.63;6.22;;;;;;;-144.47;53.33;53265.25;5087342;28;20036;-72
2022/04/30 08:05:46;;;;;;;15.18;6.22;;;;;;;-144.47;53.03;53253.34;5063141;28;20047;-73
2022/04/30 08:08:11;;;;;;;13.38;6.30;;;;;;;-144.47;52.98;53320.88;5081520;28;20044;-73
2022/04/30 08:10:36;;;;;;;19.88;7.13;;;;;;;-144.47;53.24;53320.88;5079459;28;20077;-67
2022/04/30 08:13:02;;;;;;;18.85;6.35;;;;;;;-144.47;53.27;53318.91;5064541;28;20024;-74
2022/04/30 08:15:27;;;;;;;12.23;6.38;;;;;;;-144.47;53.22;53293.06;5081322;28;20032;-71
2022/04/30 08:17:53;;;;;;;13.00;6.50;;;;;;;-144.47;53.16;53285.13;5081294;28;21486;-72
2022/04/30 08:20:19;;;;;;;18.40;6.13;;;;;;;-144.47;53.09;53308.97;5082312;28;20036;-70
2022/04/30 08:22:45;;;;;;;11.38;6.53;;;;;;;-144.47;53.16;53305.00;5077968;28;20056;-71
2022/04/30 08:25:10;;;;;;;21.88;7.22;;;;;;;-144.47;52.96;53283.13;5065161;28;20090;-71
2022/04/30 08:27:36;;;;;;;15.70;6.45;;;;;;;-144.47;53.01;53285.13;5082575;28;20088;-73
2022/04/30 08:30:01;;;;;;;19.40;6.95;;;;;;;-144.47;52.80;53283.13;5082480;28;20036;-72
2022/04/30 08:32:27;;;;;;;21.38;7.07;;;;;;;-144.47;52.20;53269.22;5084878;28;20132;-73
2022/04/30 08:34:54;;;;;;;14.20;6.45;;;;;;;-144.47;52.27;53326.84;5067627;28;20041;-72
2022/04/30 08:37:19;;;;;;;15.73;7.03;;;;;;;-144.47;52.06;53312.94;5082230;28;20142;-70
2022/04/30 08:39:45;;;;;;;16.70;6.60;;;;;;;-144.47;51.91;53299.03;5084569;28;20114;-70
2022/04/30 08:42:13;;;;;;;18.40;6.22;;;;;;;-144.47;51.66;53291.09;5079695;28;20044;-71
2022/04/30 08:44:39;;;;;;;13.80;6.25;;;;;;;-144.47;51.82;53306.97;5073792;28;20810;-69
2022/04/30 08:47:05;;;;;;;16.35;6.68;;;;;;;-144.47;51.76;53285.13;5074494;28;20503;-70
2022/04/30 08:49:31;;;;;;;14.38;6.63;;;;;;;-144.47;51.70;53277.19;5077503;28;20417;-71
2022/04/30 08:51:57;;;;;;;20.83;6.88;;;;;;;-144.47;51.19;53285.13;5089716;28;20032;-72
2022/04/30 08:54:22;;;;;;;18.73;6.97;;;;;;;-144.47;51.34;53269.22;5073186;28;20571;-71
2022/04/30 08:56:52;;;;;;;14.40;6.32;;;;;;;-144.47;51.48;53297.03;5080139;28;20757;-70
2022/04/30 08:59:18;;;;;;;18.70;6.93;;;;;;;-144.47;51.30;53316.91;5089195;28;20035;-71
2022/04/30 09:01:50;;;;;;;14.90;6.05;;;;;;;-144.47;51.77;53277.19;5085687;28;20040;-73
2022/04/30 09:04:17;;;;;;;14.05;6.25;;;;;;;-144.47;51.08;53281.16;5087542;28;20103;-71
2022/04/30 09:06:53;;;;;;;17.25;6.70;;;;;;;-144.47;51.10;53281.16;5091251;28;20523;-68
2022/04/30 09:09:29;;;;;;;15.90;8.07;;;;;;;-144.47;50.68;53305.00;5085248;28;20035;-72
2022/04/30 09:12:09;;;;;;;12.98;5.93;;;;;;;-144.47;50.45;53310.94;5085555;28;20592;-71
2022/04/30 09:14:38;;;;;;;14.07;7.28;;;;;;;-144.47;50.14;53308.97;5086793;28;20047;-71
2022/04/30 09:17:09;;;;;;;17.17;6.38;;;;;;;-144.47;49.69;53291.09;5088777;28;20028;-71
2022/04/30 09:19:54;;;;;;;12.35;6.60;;;;;;;-144.47;48.82;53273.22;5069407;28;20512;-69
2022/04/30 09:22:31;;;;;;;16.67;6.72;;;;;;;-144.47;49.49;53269.22;5079130;28;20048;-71
2022/04/30 09:24:58;;;;;;;12.02;5.95;;;;;;;-144.47;49.06;53267.25;5083007;28;20203;-69
2022/04/30 09:27:24;;;;;;;13.68;6.35;;;;;;;-144.47;48.73;53281.16;5084456;28;20505;-68
2022/04/30 09:29:50;;;;;;;21.58;7.25;;;;;;;-144.47;48.50;53277.19;5090057;28;20040;-71
2022/04/30 09:32:23;;;;;;;15.90;6.50;;;;;;;-144.47;48.06;53239.44;5084692;28;20401;-70
2022/04/30 09:37:49;;;;;;;17.75;6.55;;;;;;;-144.47;47.90;53251.34;5088137;28;20043;-70
2022/04/30 09:40:14;;;;;;;13.57;6.75;;;;;;;-144.47;47.49;53257.31;5077309;28;20024;-70
2022/04/30 09:42:45;;;;;;;11.93;6.40;;;;;;;-144.47;47.27;53287.13;5089934;28;20430;-69
2022/04/30 09:45:22;;;;;;;14.32;6.60;;;;;;;-144.47;47.53;53269.22;5085866;28;20048;-68
2022/04/30 09:47:48;;;;;;;15.38;6.72;;;;;;;-144.47;46.74;53279.16;5087716;28;20129;-69
2022/04/30 09:55:42;;;;;;;11.38;6.35;;;;;;;-144.47;46.43;53241.44;5088200;28;20039;-68
2022/04/30 09:58:10;;;;;;;16.85;6.32;;;;;;;-144.47;46.12;53271.22;5084365;28;20051;-73
2022/04/30 10:00:35;;;;;;;16.25;6.80;;;;;;;-144.47;45.11;53265.25;5087608;28;20028;-71
2022/04/30 10:03:02;;;;;;;15.13;6.32;;;;;;;-144.47;45.18;53233.47;5089791;28;20039;-68
2022/04/30 10:05:30;;;;;;;17.15;7.50;;;;;;;-144.47;44.77;53229.50;5080574;28;20055;-70
2022/04/30 10:07:56;;;;;;;11.60;5.82;;;;;;;-144.47;44.29;53231.50;5087373;28;20524;-70
2022/04/30 10:10:31;;;;;;;18.63;6.40;;;;;;;-144.47;44.57;53243.41;5089599;28;20024;-68
2022/04/30 10:13:13;;;;;;;11.77;5.82;;;;;;;-144.47;43.46;53239.44;5083945;28;20019;-71
2022/04/30 10:15:50;;;;;;;15.90;6.65;;;;;;;-144.47;43.91;53269.22;5089424;28;20405;-71
2022/04/30 10:18:18;;;;;;;17.00;6.63;;;;;;;-144.47;44.03;53257.31;5083248;28;20044;-69
2022/04/30 10:20:50;;;;;;;18.98;7.28;;;;;;;-144.47;44.14;53227.53;5082429;28;20041;-68
2022/04/30 10:23:17;;;;;;;19.15;6.13;;;;;;;-144.47;43.62;53181.84;5089701;28;20541;-69
2022/04/30 10:25:44;;;;;;;12.73;6.80;;;;;;;-144.47;42.76;53265.25;5069675;28;20031;-72
2022/04/30 10:28:23;;;;;;;15.77;6.63;;;;;;;-144.47;43.13;53219.56;5090193;28;20120;-75
2022/04/30 10:30:57;;;;;;;20.95;7.30;;;;;;;-144.47;42.45;53273.22;5089853;28;20108;-69
2022/04/30 10:33:23;;;;;;;11.88;6.45;;;;;;;-144.47;42.45;53243.41;5088969;28;20047;-69
2022/04/30 10:35:49;;;;;;;13.48;7.63;;;;;;;-144.47;42.54;53261.28;5088913;28;20035;-68
2022/04/30 10:38:18;;;;;;;14.63;7.30;;;;;;;-144.47;42.22;53261.28;5089041;28;20066;-71
2022/04/30 10:40:58;;;;;;;15.02;6.75;;;;;;;-144.47;42.65;53251.34;5081350;28;20036;-72
2022/04/30 10:43:26;;;;;;;14.20;6.32;;;;;;;-144.47;42.33;53203.69;5077911;28;20029;-71
2022/04/30 10:45:52;;;;;;;13.73;7.43;;;;;;;-144.47;42.23;53211.63;5070260;28;20488;-71
2022/04/30 10:48:19;;;;;;;16.42;7.60;;;;;;;-144.47;41.79;53253.34;5089096;28;20089;-71
2022/04/30 10:50:45;;;;;;;14.40;7.00;;;;;;;-144.47;41.73;53235.47;5070133;28;20119;-72
2022/04/30 10:53:13;;;;;;;15.77;6.47;;;;;;;-144.47;41.41;53233.47;5070135;28;20058;-69
2022/04/30 10:55:39;;;;;;;12.90;7.20;;;;;;;-144.47;41.54;53251.34;5082671;28;20089;-70
2022/04/30 10:58:05;;;;;;;20.05;6.97;;;;;;;-144.47;40.99;53199.72;5063576;28;20120;-71
2022/04/30 11:00:30;;;;;;;16.85;7.07;;;;;;;-144.47;41.72;53183.81;5069229;28;20031;-68
2022/04/30 11:03:09;;;;;;;13.23;7.55;;;;;;;-144.47;40.96;53233.47;5087918;28;20041;-70
2022/04/30 11:05:34;;;;;;;11.57;6.13;;;;;;;-144.47;40.85;53219.56;5088265;28;20032;-70
2022/04/30 11:08:03;;;;;;;19.10;7.18;;;;;;;-144.47;41.03;53209.66;5085863;28;20051;-70
2022/04/30 11:10:29;;;;;;;12.25;7.38;;;;;;;-144.47;41.19;53219.56;5087486;28;20048;-71
2022/04/30 11:13:03;;;;;;;10.73;6.18;;;;;;;-144.47;41.52;53205.66;5082225;28;20028;-70
2022/04/30 11:15:28;;;;;;;19.08;6.85;;;;;;;-144.47;41.26;53179.84;5085798;28;20033;-72
2022/04/30 11:17:57;;;;;;;13.05;6.75;;;;;;;-144.47;40.98;53207.66;5086143;28;20031;-67
2022/04/30 11:20:24;;;;;;;12.18;6.50;;;;;;;-144.47;40.68;53233.47;5088762;28;20036;-69
2022/04/30 11:22:57;;;;;;;22.60;9.38;;;;;;;-144.47;41.55;53225.53;5089028;28;20028;-69
2022/04/30 11:25:38;;;;;;;17.20;8.10;;;;;;;-144.47;40.68;53207.66;5087282;28;20031;-70
2022/04/30 11:28:08;;;;;;;12.82;6.80;;;;;;;-144.47;41.44;53235.47;5077729;28;20042;-70
2022/04/30 11:30:45;;;;;;;14.50;6.32;;;;;;;-144.47;41.02;53243.41;5062634;28;20036;-71
2022/04/30 11:33:12;;;;;;;12.35;6.78;;;;;;;-144.47;41.15;53199.72;5082308;28;20032;-68
2022/04/30 11:35:38;;;;;;;13.23;6.50;;;;;;;-144.47;40.77;53239.44;5088446;28;20071;-70
2022/04/30 11:38:08;;;;;;;15.57;7.13;;;;;;;-144.47;40.61;53231.50;5088340;28;20052;-73
2022/04/30 11:40:33;;;;;;;17.17;6.70;;;;;;;-144.47;40.77;53213.63;5067191;28;20139;-71
2022/04/30 11:43:01;;;;;;;21.77;7.10;;;;;;;-144.47;40.56;53245.41;5080296;28;20048;-69
2022/04/30 11:45:31;;;;;;;11.70;7.15;;;;;;;-144.47;39.88;53221.56;5069235;28;20127;-71